createdAt,value
2022-10-09T00:01:26.568Z,9.30
2022-10-09T00:03:56.836Z,9.27
2022-10-09T00:06:28.363Z,9.25
2022-10-09T00:08:56.746Z,9.21
2022-10-09T00:11:26.710Z,9.19
2022-10-09T00:13:55.706Z,9.15
2022-10-09T00:16:25.646Z,9.14
2022-10-09T00:18:54.244Z,9.11
2022-10-09T00:21:32.396Z,9.07
2022-10-09T00:24:02.679Z,9.04
2022-10-09T00:26:31.137Z,9.02
2022-10-09T00:28:59.680Z,8.99
2022-10-09T00:31:27.601Z,8.97
2022-10-09T00:33:55.731Z,8.94
2022-10-09T00:36:25.387Z,8.91
2022-10-09T00:38:54.383Z,8.88
2022-10-09T00:41:25.622Z,8.85
2022-10-09T00:43:59.423Z,8.82
2022-10-09T00:46:45.002Z,8.79
2022-10-09T00:49:20.569Z,8.76
2022-10-09T00:51:50.007Z,8.73
2022-10-09T00:54:20.797Z,8.72
2022-10-09T00:56:49.847Z,8.70
2022-10-09T00:59:18.666Z,8.68
2022-10-09T01:01:49.439Z,8.66
2022-10-09T01:04:19.383Z,8.65
2022-10-09T01:06:57.891Z,8.63
2022-10-09T01:09:49.551Z,8.62
2022-10-09T01:12:32.500Z,8.61
2022-10-09T01:15:27.609Z,8.59
2022-10-09T01:18:34.611Z,8.57
2022-10-09T01:21:17.770Z,8.55
2022-10-09T01:24:13.755Z,8.51
2022-10-09T01:26:59.065Z,8.49
2022-10-09T01:29:35.355Z,8.47
2022-10-09T01:32:05.835Z,8.46
2022-10-09T01:34:33.999Z,8.45
2022-10-09T01:37:08.941Z,8.44
2022-10-09T01:39:37.574Z,8.41
2022-10-09T01:42:05.921Z,8.38
2022-10-09T01:44:35.019Z,8.36
2022-10-09T01:47:04.532Z,8.25
2022-10-09T01:49:41.409Z,8.31
2022-10-09T01:52:33.182Z,8.28
2022-10-09T01:55:32.022Z,8.26
2022-10-09T01:58:18.124Z,8.22
2022-10-09T02:00:54.775Z,8.19
2022-10-09T02:03:24.504Z,8.16
2022-10-09T02:05:53.927Z,8.14
2022-10-09T02:08:24.154Z,8.10
2022-10-09T02:10:57.029Z,8.07
2022-10-09T02:13:24.924Z,8.03
2022-10-09T02:16:02.951Z,8.00
2022-10-09T02:18:50.426Z,7.96
2022-10-09T02:21:26.391Z,7.94
2022-10-09T02:23:57.941Z,7.91
2022-10-09T02:26:27.003Z,7.89
2022-10-09T02:28:55.062Z,7.86
2022-10-09T02:31:29.021Z,7.83
2022-10-09T02:33:58.610Z,7.81
2022-10-09T02:36:27.388Z,7.79
2022-10-09T02:38:56.485Z,7.76
2022-10-09T02:41:25.369Z,7.73
2022-10-09T02:43:53.693Z,7.72
2022-10-09T02:46:21.975Z,7.69
2022-10-09T02:48:49.950Z,7.67
2022-10-09T02:51:17.950Z,7.64
2022-10-09T02:53:45.819Z,7.61
2022-10-09T02:56:13.915Z,7.60
2022-10-09T02:58:41.631Z,7.58
2022-10-09T03:01:09.529Z,7.58
2022-10-09T03:03:39.752Z,7.57
2022-10-09T03:06:15.931Z,7.54
2022-10-09T03:08:47.690Z,7.52
2022-10-09T03:11:16.767Z,7.50
2022-10-09T03:13:45.087Z,7.48
2022-10-09T03:16:16.195Z,7.47
2022-10-09T03:18:44.293Z,7.44
2022-10-09T03:21:14.922Z,7.41
2022-10-09T03:23:43.164Z,7.38
2022-10-09T03:26:13.353Z,7.36
2022-10-09T03:28:47.625Z,7.33
2022-10-09T03:31:33.405Z,7.32
2022-10-09T03:34:05.648Z,7.30
2022-10-09T03:36:33.434Z,7.26
2022-10-09T03:39:01.054Z,7.23
2022-10-09T03:41:29.064Z,7.19
2022-10-09T03:43:57.044Z,7.14
2022-10-09T03:46:24.886Z,7.12
2022-10-09T03:48:52.709Z,7.10
2022-10-09T03:51:20.908Z,7.07
2022-10-09T03:53:48.519Z,7.05
2022-10-09T03:56:16.413Z,7.00
2022-10-09T03:58:44.305Z,6.98
2022-10-09T04:01:11.981Z,6.95
2022-10-09T04:03:39.843Z,6.92
2022-10-09T04:06:07.776Z,6.89
2022-10-09T04:08:35.483Z,6.84
2022-10-09T04:11:03.816Z,6.82
2022-10-09T04:13:31.708Z,6.82
2022-10-09T04:15:59.372Z,6.81
2022-10-09T04:18:27.335Z,6.80
2022-10-09T04:20:56.913Z,6.80
2022-10-09T04:23:25.624Z,6.79
2022-10-09T04:25:59.750Z,6.78
2022-10-09T04:28:30.771Z,6.79
2022-10-09T04:30:59.589Z,6.78
2022-10-09T04:33:27.810Z,6.79
2022-10-09T04:35:57.186Z,6.77
2022-10-09T04:38:25.521Z,6.77
2022-10-09T04:40:58.102Z,6.77
2022-10-09T04:43:28.241Z,6.77
2022-10-09T04:45:56.334Z,6.78
2022-10-09T04:48:24.718Z,6.79
2022-10-09T04:50:52.652Z,6.82
2022-10-09T04:53:20.371Z,6.84
2022-10-09T04:55:48.100Z,6.85
2022-10-09T04:58:15.863Z,6.84
2022-10-09T05:00:46.730Z,6.84
2022-10-09T05:03:15.012Z,6.84
2022-10-09T05:05:43.207Z,6.85
2022-10-09T05:08:10.946Z,6.85
2022-10-09T05:10:38.792Z,6.85
2022-10-09T05:13:06.799Z,6.84
2022-10-09T05:15:37.729Z,6.83
2022-10-09T05:18:05.517Z,6.82
2022-10-09T05:20:33.330Z,6.81
2022-10-09T05:23:00.964Z,6.81
2022-10-09T05:25:28.810Z,6.82
2022-10-09T05:27:56.820Z,6.82
2022-10-09T05:30:24.766Z,6.83
2022-10-09T05:32:52.976Z,6.85
2022-10-09T05:35:20.623Z,6.88
2022-10-09T05:37:48.289Z,6.89
2022-10-09T05:40:16.204Z,6.90
2022-10-09T05:42:44.023Z,6.91
2022-10-09T05:45:11.690Z,6.92
2022-10-09T05:47:39.459Z,6.93
2022-10-09T05:50:07.413Z,6.94
2022-10-09T05:52:35.663Z,6.94
2022-10-09T05:55:03.461Z,6.96
2022-10-09T05:57:31.669Z,6.97
2022-10-09T05:59:59.331Z,6.99
2022-10-09T06:02:26.989Z,7.02
2022-10-09T06:04:55.783Z,7.05
2022-10-09T06:07:23.402Z,7.06
2022-10-09T06:09:52.350Z,7.07
2022-10-09T06:12:20.150Z,7.11
2022-10-09T06:14:47.752Z,7.14
2022-10-09T06:17:15.507Z,7.16
2022-10-09T06:19:43.132Z,7.21
2022-10-09T06:22:10.825Z,7.24
2022-10-09T06:24:38.865Z,7.29
2022-10-09T06:27:06.629Z,7.34
2022-10-09T06:29:34.645Z,7.39
2022-10-09T06:32:02.238Z,7.43
2022-10-09T06:34:29.876Z,7.47
2022-10-09T06:36:57.544Z,7.53
2022-10-09T06:39:26.581Z,7.59
2022-10-09T06:41:54.272Z,7.66
2022-10-09T06:44:30.846Z,7.73
2022-10-09T06:46:58.583Z,7.78
2022-10-09T06:49:26.567Z,7.84
2022-10-09T06:51:54.131Z,7.90
2022-10-09T06:54:21.924Z,7.95
2022-10-09T06:56:49.575Z,8.01
2022-10-09T06:59:17.475Z,8.08
2022-10-09T07:01:45.352Z,8.13
2022-10-09T07:04:14.834Z,8.19
2022-10-09T07:06:45.422Z,8.25
2022-10-09T07:09:15.072Z,8.31
2022-10-09T07:11:46.048Z,8.36
2022-10-09T07:14:15.836Z,8.43
2022-10-09T07:16:46.282Z,8.48
2022-10-09T07:19:15.719Z,8.54
2022-10-09T07:21:46.426Z,8.62
2022-10-09T07:24:15.282Z,8.67
2022-10-09T07:26:46.735Z,8.73
2022-10-09T07:29:17.720Z,8.79
2022-10-09T07:31:45.537Z,8.87
2022-10-09T07:34:13.508Z,8.95
2022-10-09T07:36:41.352Z,9.03
2022-10-09T07:39:09.116Z,9.11
2022-10-09T07:41:37.084Z,9.20
2022-10-09T07:44:04.987Z,9.27
2022-10-09T07:46:34.388Z,9.35
2022-10-09T07:49:03.889Z,9.41
2022-10-09T07:51:32.600Z,9.51
2022-10-09T07:54:02.259Z,9.60
2022-10-09T07:56:36.020Z,9.67
2022-10-09T07:59:06.352Z,9.76
2022-10-09T08:01:35.908Z,9.84
2022-10-09T08:04:04.402Z,9.90
2022-10-09T08:06:33.306Z,9.97
2022-10-09T08:09:03.110Z,10.01
2022-10-09T08:11:32.900Z,10.07
2022-10-09T08:14:00.952Z,10.13
2022-10-09T08:16:28.886Z,10.18
2022-10-09T08:18:58.974Z,10.24
2022-10-09T08:21:28.558Z,10.32
2022-10-09T08:23:58.021Z,10.37
2022-10-09T08:26:29.028Z,10.43
2022-10-09T08:29:02.548Z,10.52
2022-10-09T08:31:32.158Z,10.59
2022-10-09T08:34:02.925Z,10.66
2022-10-09T08:36:31.977Z,10.75
2022-10-09T08:39:00.046Z,10.82
2022-10-09T08:41:47.409Z,10.89
2022-10-09T08:44:20.863Z,10.96
2022-10-09T08:46:59.467Z,11.03
2022-10-09T08:49:35.077Z,11.13
2022-10-09T08:52:31.980Z,11.21
2022-10-09T08:55:06.642Z,11.30
2022-10-09T08:57:34.600Z,11.38
2022-10-09T09:00:02.253Z,11.46
2022-10-09T09:02:53.755Z,11.55
2022-10-09T09:05:35.302Z,11.62
2022-10-09T09:08:38.254Z,11.69
2022-10-09T09:11:28.991Z,11.73
2022-10-09T09:14:09.049Z,11.79
2022-10-09T09:16:43.591Z,11.81
2022-10-09T09:19:48.866Z,11.87
2022-10-09T09:22:17.211Z,11.93
2022-10-09T09:24:55.504Z,11.99
2022-10-09T09:27:31.694Z,12.03
2022-10-09T09:30:15.085Z,12.05
2022-10-09T09:33:19.527Z,12.09
2022-10-09T09:35:47.160Z,12.10
2022-10-09T09:38:16.076Z,12.12
2022-10-09T09:40:47.214Z,12.16
2022-10-09T09:43:19.395Z,12.19
2022-10-09T09:45:49.035Z,12.20
2022-10-09T09:48:19.816Z,12.21
2022-10-09T09:51:10.236Z,12.21
2022-10-09T09:53:43.604Z,12.24
2022-10-09T09:56:11.723Z,12.29
2022-10-09T09:58:49.095Z,12.33
2022-10-09T10:01:29.516Z,12.35
2022-10-09T10:03:59.692Z,12.41
2022-10-09T10:06:34.918Z,12.50
2022-10-09T10:09:14.865Z,12.63
2022-10-09T10:11:55.951Z,12.79
2022-10-09T10:14:23.861Z,12.93
2022-10-09T10:16:54.055Z,13.01
2022-10-09T10:19:30.645Z,13.06
2022-10-09T10:22:02.390Z,13.11
2022-10-09T10:24:39.924Z,13.15
2022-10-09T10:27:21.820Z,13.21
2022-10-09T10:29:53.539Z,13.23
2022-10-09T10:32:35.007Z,13.24
2022-10-09T10:35:09.838Z,13.38
2022-10-09T10:38:15.050Z,13.55
2022-10-09T10:40:47.263Z,13.80
2022-10-09T10:43:26.117Z,14.01
2022-10-09T10:46:12.722Z,14.25
2022-10-09T10:48:47.172Z,14.44
2022-10-09T10:51:25.359Z,14.57
2022-10-09T10:53:59.368Z,14.60
2022-10-09T10:56:40.124Z,14.64
2022-10-09T10:59:07.991Z,14.60
2022-10-09T11:02:12.663Z,14.51
2022-10-09T11:05:18.018Z,14.41
2022-10-09T11:07:48.399Z,14.39
2022-10-09T11:10:24.232Z,14.51
2022-10-09T11:13:05.002Z,14.69
2022-10-09T11:15:39.736Z,14.81
2022-10-09T11:18:21.593Z,14.80
2022-10-09T11:21:00.193Z,14.81
2022-10-09T11:23:43.231Z,14.88
2022-10-09T11:26:29.067Z,14.98
2022-10-09T11:29:05.796Z,15.12
2022-10-09T11:32:04.109Z,15.29
2022-10-09T11:34:43.754Z,15.50
2022-10-09T11:37:24.568Z,15.69
2022-10-09T11:39:52.676Z,15.93
2022-10-09T11:42:25.679Z,16.09
2022-10-09T11:45:04.550Z,16.25
2022-10-09T11:47:55.251Z,16.44
2022-10-09T11:50:41.993Z,16.68
2022-10-09T11:53:14.642Z,16.92
2022-10-09T11:55:43.586Z,17.15
2022-10-09T11:58:23.592Z,17.32
2022-10-09T12:00:56.936Z,17.38
2022-10-09T12:03:33.179Z,17.53
2022-10-09T12:06:12.410Z,17.65
2022-10-09T12:08:43.069Z,17.60
2022-10-09T12:11:14.081Z,17.38
2022-10-09T12:13:44.432Z,17.13
2022-10-09T12:16:45.194Z,16.91
2022-10-09T12:19:38.309Z,16.78
2022-10-09T12:22:13.223Z,16.81
2022-10-09T12:24:45.587Z,16.96
2022-10-09T12:27:30.759Z,16.98
2022-10-09T12:30:05.214Z,17.11
2022-10-09T12:32:39.885Z,17.42
2022-10-09T12:35:29.270Z,17.78
2022-10-09T12:37:57.512Z,18.23
2022-10-09T12:40:29.162Z,18.58
2022-10-09T12:43:00.651Z,18.91
2022-10-09T12:45:31.982Z,19.30
2022-10-09T12:48:10.108Z,19.53
2022-10-09T12:50:38.231Z,19.47
2022-10-09T12:53:20.633Z,19.59
2022-10-09T12:55:55.426Z,19.82
2022-10-09T12:58:39.515Z,19.98
2022-10-09T13:01:12.330Z,20.11
2022-10-09T13:03:43.261Z,20.22
2022-10-09T13:06:17.424Z,20.26
2022-10-09T13:08:46.482Z,20.37
2022-10-09T13:11:38.163Z,20.54
2022-10-09T13:14:07.523Z,20.64
2022-10-09T13:16:44.756Z,20.74
2022-10-09T13:19:26.841Z,20.90
2022-10-09T13:22:18.862Z,21.30
2022-10-09T13:24:49.811Z,21.68
2022-10-09T13:27:19.643Z,21.82
2022-10-09T13:29:48.236Z,22.03
2022-10-09T13:32:17.900Z,22.25
2022-10-09T13:34:46.410Z,22.47
2022-10-09T13:37:15.704Z,22.63
2022-10-09T13:39:43.986Z,22.81
2022-10-09T13:42:15.179Z,22.90
2022-10-09T13:44:43.524Z,23.09
2022-10-09T13:47:11.270Z,23.29
2022-10-09T13:49:39.178Z,23.55
2022-10-09T13:52:07.318Z,23.60
2022-10-09T13:54:35.044Z,23.58
2022-10-09T13:57:03.984Z,23.50
2022-10-09T13:59:32.351Z,23.39
2022-10-09T14:02:00.591Z,23.28
2022-10-09T14:04:29.194Z,23.12
2022-10-09T14:06:56.871Z,23.01
2022-10-09T14:09:24.766Z,22.97
2022-10-09T14:11:52.531Z,22.96
2022-10-09T14:14:22.357Z,23.07
2022-10-09T14:16:51.050Z,23.27
2022-10-09T14:19:19.182Z,23.51
2022-10-09T14:21:49.432Z,23.61
2022-10-09T14:24:18.685Z,23.59
2022-10-09T14:26:51.380Z,23.59
2022-10-09T14:29:19.657Z,23.53
2022-10-09T14:31:50.175Z,23.51
2022-10-09T14:34:17.997Z,23.49
2022-10-09T14:36:46.170Z,23.50
2022-10-09T14:39:14.138Z,23.51
2022-10-09T14:41:42.038Z,23.42
2022-10-09T14:44:10.571Z,23.33
2022-10-09T14:46:39.403Z,23.35
2022-10-09T14:49:08.073Z,23.45
2022-10-09T14:51:39.049Z,23.54
2022-10-09T14:54:08.722Z,23.56
2022-10-09T14:56:36.463Z,23.60
2022-10-09T14:59:08.618Z,23.57
2022-10-09T15:01:37.106Z,23.63
2022-10-09T15:04:06.159Z,23.77
2022-10-09T15:06:34.220Z,23.94
2022-10-09T15:09:06.241Z,24.01
2022-10-09T15:11:35.758Z,23.97
2022-10-09T15:14:05.259Z,23.84
2022-10-09T15:16:33.082Z,23.69
2022-10-09T15:19:01.710Z,23.51
2022-10-09T15:21:31.973Z,23.32
2022-10-09T15:24:01.444Z,23.08
2022-10-09T15:26:33.211Z,22.79
2022-10-09T15:29:02.696Z,22.44
2022-10-09T15:31:33.701Z,22.16
2022-10-09T15:34:02.728Z,21.95
2022-10-09T15:36:34.363Z,21.65
2022-10-09T15:39:09.090Z,21.37
2022-10-09T15:41:38.628Z,21.12
2022-10-09T15:44:17.131Z,20.84
2022-10-09T15:46:46.292Z,20.47
2022-10-09T15:49:14.313Z,20.17
2022-10-09T15:51:42.188Z,19.86
2022-10-09T15:54:11.524Z,19.60
2022-10-09T15:56:40.370Z,19.31
2022-10-09T15:59:12.244Z,19.01
2022-10-09T16:01:40.335Z,18.71
2022-10-09T16:04:09.195Z,18.41
2022-10-09T16:06:36.875Z,18.20
2022-10-09T16:09:05.520Z,17.97
2022-10-09T16:11:34.584Z,17.72
2022-10-09T16:14:02.673Z,17.50
2022-10-09T16:16:30.695Z,17.29
2022-10-09T16:19:03.441Z,17.06
2022-10-09T16:21:31.336Z,16.77
2022-10-09T16:23:59.847Z,16.49
2022-10-09T16:26:29.753Z,16.26
2022-10-09T16:28:59.961Z,16.02
2022-10-09T16:31:35.464Z,15.85
2022-10-09T16:34:06.147Z,15.65
2022-10-09T16:36:34.457Z,15.46
2022-10-09T16:39:02.389Z,15.27
2022-10-09T16:41:30.109Z,15.08
2022-10-09T16:44:00.271Z,14.92
2022-10-09T16:49:01.985Z,14.60
2022-10-09T16:51:33.737Z,14.44
2022-10-09T16:54:04.602Z,14.29
2022-10-09T16:56:35.702Z,14.15
2022-10-09T16:59:07.118Z,14.01
2022-10-09T17:01:40.514Z,13.86
2022-10-09T17:04:08.315Z,13.73
2022-10-09T17:06:36.093Z,13.61
2022-10-09T17:09:13.497Z,13.48
2022-10-09T17:11:42.907Z,13.36
2022-10-09T17:14:11.910Z,13.25
2022-10-09T17:16:41.923Z,13.13
2022-10-09T17:19:09.852Z,13.04
2022-10-09T17:21:37.757Z,12.95
2022-10-09T17:24:05.879Z,12.85
2022-10-09T17:26:34.934Z,12.76
2022-10-09T17:29:03.882Z,12.67
2022-10-09T17:31:32.121Z,12.59
2022-10-09T17:34:03.188Z,12.50
2022-10-09T17:36:34.752Z,12.43
2022-10-09T17:39:04.209Z,12.35
2022-10-09T17:41:32.016Z,12.26
2022-10-09T17:44:00.154Z,12.17
2022-10-09T17:46:30.594Z,12.08
2022-10-09T17:48:59.599Z,11.99
2022-10-09T17:51:30.319Z,11.91
2022-10-09T17:54:01.391Z,11.83
2022-10-09T17:56:30.472Z,11.76
2022-10-09T17:58:59.885Z,11.69
2022-10-09T18:01:28.378Z,11.62
2022-10-09T18:03:56.683Z,11.54
2022-10-09T18:06:25.074Z,11.47
2022-10-09T18:08:55.535Z,11.40
2022-10-09T18:11:24.675Z,11.32
2022-10-09T18:13:53.542Z,11.23
2022-10-09T18:16:35.194Z,11.19
2022-10-09T18:19:14.236Z,11.13
2022-10-09T18:21:47.302Z,11.08
2022-10-09T18:24:15.821Z,11.02
2022-10-09T18:26:44.597Z,10.95
2022-10-09T18:29:12.685Z,10.90
2022-10-09T18:31:40.610Z,10.82
2022-10-09T18:34:09.844Z,10.76
2022-10-09T18:36:38.007Z,10.72
2022-10-09T18:39:08.525Z,10.66
2022-10-09T18:41:37.670Z,10.60
2022-10-09T18:44:07.467Z,10.54
2022-10-09T18:46:39.370Z,10.48
2022-10-09T18:49:13.541Z,10.42
2022-10-09T18:51:43.410Z,10.36
2022-10-09T18:54:17.182Z,10.30
2022-10-09T18:56:46.655Z,10.24
2022-10-09T18:59:18.289Z,10.19
2022-10-09T19:01:46.139Z,10.13
2022-10-09T19:04:14.029Z,10.07
2022-10-09T19:06:41.897Z,10.01
2022-10-09T19:09:09.523Z,9.98
2022-10-09T19:11:37.379Z,9.93
2022-10-09T19:14:05.396Z,9.89
2022-10-09T19:16:34.615Z,9.84
2022-10-09T19:19:04.568Z,9.79
2022-10-09T19:21:32.435Z,9.74
2022-10-09T19:24:06.376Z,9.71
2022-10-09T19:26:35.373Z,9.69
2022-10-09T19:29:05.120Z,9.69
2022-10-09T19:31:34.526Z,9.69
2022-10-09T19:34:04.656Z,9.66
2022-10-09T19:36:34.337Z,9.65
2022-10-09T19:39:08.034Z,9.62
2022-10-09T19:41:36.550Z,9.59
2022-10-09T19:44:04.183Z,9.57
2022-10-09T19:46:32.246Z,9.51
2022-10-09T19:49:00.779Z,9.47
2022-10-09T19:51:28.433Z,9.44
2022-10-09T19:53:56.328Z,9.41
2022-10-09T19:56:26.871Z,9.38
2022-10-09T19:58:56.527Z,9.34
2022-10-09T20:01:27.016Z,9.31
2022-10-09T20:03:59.997Z,9.27
2022-10-09T20:06:28.593Z,9.25
2022-10-09T20:08:56.904Z,9.23
2022-10-09T20:11:26.497Z,9.21
2022-10-09T20:13:56.173Z,9.21
2022-10-09T20:16:25.917Z,9.21
2022-10-09T20:18:54.817Z,9.20
2022-10-09T20:21:22.546Z,9.20
2022-10-09T20:23:51.005Z,9.19
2022-10-09T20:26:20.877Z,9.16
2022-10-09T20:28:49.290Z,9.15
2022-10-09T20:31:19.556Z,9.13
2022-10-09T20:33:48.349Z,9.11
2022-10-09T20:36:31.566Z,9.09
2022-10-09T20:39:01.111Z,9.05
2022-10-09T20:41:30.264Z,9.03
2022-10-09T20:43:59.805Z,8.99
2022-10-09T20:46:30.415Z,8.97
2022-10-09T20:48:58.987Z,8.94
2022-10-09T20:51:26.886Z,8.93
2022-10-09T20:53:59.722Z,8.93
2022-10-09T20:56:30.293Z,8.94
2022-10-09T20:58:59.475Z,8.95
2022-10-09T21:01:28.514Z,8.95
2022-10-09T21:03:59.258Z,8.94
2022-10-09T21:06:27.636Z,8.92
2022-10-09T21:08:56.843Z,8.90
2022-10-09T21:11:25.193Z,8.89
2022-10-09T21:13:55.322Z,8.86
2022-10-09T21:16:24.471Z,8.83
2022-10-09T21:19:05.528Z,8.80
2022-10-09T21:21:34.122Z,8.77
2022-10-09T21:24:02.514Z,8.77
2022-10-09T21:26:35.451Z,8.77
2022-10-09T21:29:05.776Z,8.76
2022-10-09T21:31:34.206Z,8.75
2022-10-09T21:34:02.498Z,8.73
2022-10-09T21:37:08.852Z,8.70
2022-10-09T21:39:35.230Z,8.67
2022-10-09T21:42:02.907Z,8.63
2022-10-09T21:44:30.653Z,8.59
2022-10-09T21:46:58.464Z,8.56
2022-10-09T21:49:27.663Z,8.52
2022-10-09T21:51:55.679Z,8.51
2022-10-09T21:54:23.652Z,8.49
2022-10-09T21:56:51.921Z,8.47
2022-10-09T21:59:20.010Z,8.46
2022-10-09T22:01:47.708Z,8.43
2022-10-09T22:04:15.477Z,8.39
2022-10-09T22:06:43.467Z,8.34
2022-10-09T22:09:12.215Z,8.28
2022-10-09T22:11:40.044Z,8.24
2022-10-09T22:14:07.983Z,8.19
2022-10-09T22:16:35.759Z,8.15
2022-10-09T22:19:03.747Z,8.12
2022-10-09T22:21:31.466Z,8.08
2022-10-09T22:24:00.196Z,8.05
2022-10-09T22:26:28.012Z,8.01
2022-10-09T22:28:56.193Z,7.95
2022-10-09T22:31:26.107Z,7.88
2022-10-09T22:33:56.771Z,7.82
2022-10-09T22:36:27.177Z,7.77
2022-10-09T22:38:57.764Z,7.70
2022-10-09T22:41:26.827Z,7.65
2022-10-09T22:43:56.569Z,7.61
2022-10-09T22:46:27.132Z,7.60
2022-10-09T22:48:55.040Z,7.59
2022-10-09T22:51:24.663Z,7.56
2022-10-09T22:53:52.438Z,7.53
2022-10-09T22:56:26.171Z,7.49
2022-10-09T22:58:54.631Z,7.45
2022-10-09T23:01:40.142Z,7.38
2022-10-09T23:04:11.751Z,7.34
2022-10-09T23:06:40.424Z,7.33
2022-10-09T23:09:10.827Z,7.31
2022-10-09T23:11:38.752Z,7.27
2022-10-09T23:14:07.275Z,7.23
2022-10-09T23:16:34.990Z,7.22
2022-10-09T23:19:06.952Z,7.20
2022-10-09T23:21:37.143Z,7.17
2022-10-09T23:24:09.192Z,7.13
2022-10-09T23:26:37.224Z,7.12
2022-10-09T23:29:12.867Z,7.09
2022-10-09T23:31:40.919Z,7.08
2022-10-09T23:34:08.679Z,7.07
2022-10-09T23:36:36.424Z,7.06
2022-10-09T23:39:05.859Z,7.05
2022-10-09T23:41:33.890Z,7.03
2022-10-09T23:44:01.955Z,6.99
2022-10-09T23:46:34.266Z,6.96
2022-10-09T23:49:02.204Z,6.93
2022-10-09T23:51:30.575Z,6.90
2022-10-09T23:53:59.002Z,6.88
2022-10-09T23:56:36.378Z,6.84
2022-10-09T23:59:10.482Z,6.81
